createdAt,value
2023-07-22T00:01:24.301Z,16.43
2023-07-22T00:04:29.177Z,16.62
2023-07-22T00:07:32.470Z,16.54
2023-07-22T00:10:38.437Z,16.51
2023-07-22T00:13:45.309Z,16.64
2023-07-22T00:16:49.185Z,16.82
2023-07-22T00:19:52.646Z,16.82
2023-07-22T00:22:56.209Z,16.93
2023-07-22T00:26:01.177Z,16.75
2023-07-22T00:29:06.125Z,16.86
2023-07-22T00:32:10.918Z,16.96
2023-07-22T00:35:14.557Z,16.88
2023-07-22T00:38:18.292Z,16.65
2023-07-22T00:41:23.565Z,16.55
2023-07-22T00:44:27.035Z,16.61
2023-07-22T00:47:30.599Z,16.62
2023-07-22T00:50:35.328Z,16.74
2023-07-22T00:53:39.013Z,16.70
2023-07-22T00:56:46.185Z,16.72
2023-07-22T00:59:50.057Z,16.65
2023-07-22T01:02:53.877Z,16.52
2023-07-22T01:05:58.284Z,16.38
2023-07-22T01:09:59.627Z,16.18
2023-07-22T01:13:07.884Z,16.29
2023-07-22T01:16:11.542Z,16.40
2023-07-22T01:19:19.989Z,16.62
2023-07-22T01:22:24.730Z,16.41
2023-07-22T01:25:31.103Z,16.25
2023-07-22T01:28:37.426Z,16.28
2023-07-22T01:31:40.971Z,16.36
2023-07-22T01:34:44.513Z,16.22
2023-07-22T01:37:48.313Z,16.23
2023-07-22T01:40:53.128Z,16.07
2023-07-22T01:43:56.536Z,15.96
2023-07-22T01:47:00.036Z,16.11
2023-07-22T01:50:03.720Z,16.14
2023-07-22T01:53:07.506Z,16.18
2023-07-22T01:56:12.588Z,16.06
2023-07-22T01:59:33.614Z,15.87
2023-07-22T02:02:37.208Z,15.81
2023-07-22T02:05:40.667Z,15.79
2023-07-22T02:08:44.127Z,15.75
2023-07-22T02:11:47.499Z,15.67
2023-07-22T02:14:52.474Z,15.67
2023-07-22T02:17:56.548Z,15.74
2023-07-22T02:21:00.613Z,15.82
2023-07-22T02:24:04.162Z,15.86
2023-07-22T02:27:09.944Z,15.74
2023-07-22T02:30:14.894Z,15.70
2023-07-22T02:33:18.368Z,15.62
2023-07-22T02:36:21.942Z,15.71
2023-07-22T02:39:25.406Z,15.60
2023-07-22T02:42:28.852Z,15.64
2023-07-22T02:48:45.745Z,15.78
2023-07-22T02:51:49.389Z,15.64
2023-07-22T02:55:08.474Z,15.55
2023-07-22T02:58:12.963Z,15.50
2023-07-22T03:01:16.617Z,15.54
2023-07-22T03:04:21.898Z,15.49
2023-07-22T03:07:28.412Z,15.48
2023-07-22T03:10:32.033Z,15.50
2023-07-22T03:13:36.394Z,15.48
2023-07-22T03:16:40.200Z,15.42
2023-07-22T03:19:48.019Z,15.46
2023-07-22T03:22:53.448Z,15.47
2023-07-22T03:25:56.975Z,15.59
2023-07-22T03:29:00.609Z,15.50
2023-07-22T03:32:04.367Z,15.49
2023-07-22T03:35:12.492Z,15.46
2023-07-22T03:38:16.265Z,15.45
2023-07-22T03:41:19.801Z,15.36
2023-07-22T03:44:23.387Z,15.36
2023-07-22T03:47:26.962Z,15.40
2023-07-22T03:50:31.798Z,15.27
2023-07-22T03:53:35.240Z,15.17
2023-07-22T03:56:42.610Z,15.23
2023-07-22T03:59:46.577Z,15.11
2023-07-22T04:02:50.212Z,15.11
2023-07-22T04:05:58.701Z,14.98
2023-07-22T04:09:02.567Z,14.98
2023-07-22T04:12:06.548Z,15.03
2023-07-22T04:15:10.707Z,15.13
2023-07-22T04:18:14.112Z,15.21
2023-07-22T04:21:18.962Z,15.06
2023-07-22T04:24:22.871Z,15.04
2023-07-22T04:27:26.531Z,15.09
2023-07-22T04:30:30.027Z,15.15
2023-07-22T04:33:33.847Z,15.09
2023-07-22T04:36:39.128Z,15.22
2023-07-22T04:39:42.827Z,15.19
2023-07-22T04:42:47.318Z,15.18
2023-07-22T04:45:50.781Z,15.19
2023-07-22T04:51:52.927Z,15.21
2023-07-22T04:54:56.405Z,15.23
2023-07-22T04:59:29.790Z,15.40
2023-07-22T05:02:33.267Z,15.43
2023-07-22T05:05:37.387Z,15.42
2023-07-22T05:08:40.846Z,15.45
2023-07-22T05:11:44.520Z,15.59
2023-07-22T05:14:50.948Z,15.71
2023-07-22T05:17:54.529Z,15.46
2023-07-22T05:20:58.133Z,15.62
2023-07-22T05:24:01.755Z,15.76
2023-07-22T05:27:09.762Z,15.79
2023-07-22T05:33:21.433Z,15.80
2023-07-22T05:36:26.830Z,15.82
2023-07-22T05:39:30.597Z,15.87
2023-07-22T05:42:34.088Z,16.05
2023-07-22T05:45:38.915Z,16.15
2023-07-22T05:48:42.423Z,16.07
2023-07-22T05:51:45.975Z,15.95
2023-07-22T05:54:49.387Z,15.98
2023-07-22T05:57:52.779Z,16.21
2023-07-22T06:00:57.795Z,16.37
2023-07-22T06:04:01.507Z,16.32
2023-07-22T06:07:05.128Z,16.17
2023-07-22T06:10:10.727Z,16.35
2023-07-22T06:15:28.333Z,16.46
2023-07-22T06:18:32.040Z,16.41
2023-07-22T06:21:35.467Z,16.71
2023-07-22T06:24:39.321Z,16.95
2023-07-22T06:27:42.844Z,16.85
2023-07-22T06:30:47.808Z,17.01
2023-07-22T06:33:51.465Z,17.04
2023-07-22T06:36:54.869Z,17.11
2023-07-22T06:39:58.257Z,17.19
2023-07-22T06:43:01.596Z,17.66
2023-07-22T06:46:06.668Z,17.43
2023-07-22T06:49:11.061Z,17.54
2023-07-22T06:52:14.681Z,17.47
2023-07-22T06:55:18.946Z,17.32
2023-07-22T06:58:23.676Z,17.21
2023-07-22T07:01:28.764Z,16.95
2023-07-22T07:04:32.635Z,17.50
2023-07-22T07:07:36.099Z,17.68
2023-07-22T07:10:41.482Z,17.44
2023-07-22T07:13:47.523Z,17.77
2023-07-22T07:16:52.358Z,17.55
2023-07-22T07:19:55.935Z,17.84
2023-07-22T07:22:59.498Z,17.81
2023-07-22T07:26:03.249Z,17.68
2023-07-22T07:29:06.766Z,17.72
2023-07-22T07:32:12.064Z,17.87
2023-07-22T07:35:16.668Z,17.98
2023-07-22T07:38:20.051Z,17.84
2023-07-22T07:41:24.104Z,18.27
2023-07-22T07:44:27.526Z,18.32
2023-07-22T07:47:32.364Z,18.23
2023-07-22T07:50:35.784Z,18.30
2023-07-22T07:53:39.394Z,18.81
2023-07-22T07:56:42.976Z,18.82
2023-07-22T07:59:46.602Z,18.76
2023-07-22T08:02:51.570Z,19.01
2023-07-22T08:05:55.130Z,19.31
2023-07-22T08:08:58.568Z,19.04
2023-07-22T08:12:03.474Z,19.28
2023-07-22T08:15:07.885Z,19.11
2023-07-22T08:19:56.904Z,19.52
2023-07-22T08:23:00.587Z,19.06
2023-07-22T08:26:11.529Z,19.30
2023-07-22T08:29:15.833Z,19.90
2023-07-22T08:32:21.615Z,19.49
2023-07-22T08:35:27.604Z,20.06
2023-07-22T08:38:31.988Z,19.71
2023-07-22T08:41:35.800Z,19.43
2023-07-22T08:44:43.432Z,19.58
2023-07-22T08:47:49.436Z,19.66
2023-07-22T08:50:57.109Z,20.57
2023-07-22T08:54:10.790Z,19.92
2023-07-22T08:57:15.494Z,20.08
2023-07-22T09:00:19.591Z,20.01
2023-07-22T09:03:23.239Z,19.65
2023-07-22T09:06:28.535Z,19.27
2023-07-22T09:09:33.566Z,19.74
2023-07-22T09:12:41.508Z,20.30
2023-07-22T09:15:45.401Z,19.75
2023-07-22T09:18:48.873Z,19.90
2023-07-22T09:21:54.300Z,19.52
2023-07-22T09:25:16.119Z,20.02
2023-07-22T09:28:19.918Z,20.65
2023-07-22T09:31:24.292Z,20.54
2023-07-22T09:34:27.916Z,20.60
2023-07-22T09:37:40.415Z,20.86
2023-07-22T09:40:44.346Z,20.84
2023-07-22T09:43:49.728Z,20.59
2023-07-22T09:46:53.337Z,20.76
2023-07-22T09:49:57.519Z,20.49
2023-07-22T09:53:04.741Z,20.43
2023-07-22T09:56:08.563Z,19.94
2023-07-22T09:59:13.000Z,20.22
2023-07-22T10:02:20.368Z,20.75
2023-07-22T10:05:24.657Z,21.27
2023-07-22T10:08:38.535Z,21.31
2023-07-22T10:11:42.965Z,21.17
2023-07-22T10:14:48.229Z,20.86
2023-07-22T10:17:53.630Z,21.05
2023-07-22T10:20:59.879Z,20.98
2023-07-22T10:24:06.021Z,21.14
2023-07-22T10:27:09.801Z,21.25
2023-07-22T10:30:15.173Z,21.50
2023-07-22T10:33:19.238Z,22.01
2023-07-22T10:36:22.987Z,21.73
2023-07-22T10:39:31.473Z,22.53
2023-07-22T10:42:35.066Z,22.30
2023-07-22T10:45:43.679Z,22.97
2023-07-22T10:48:49.564Z,22.84
2023-07-22T10:51:54.235Z,21.56
2023-07-22T10:54:59.165Z,21.60
2023-07-22T10:58:07.257Z,21.78
2023-07-22T11:01:27.435Z,22.12
2023-07-22T11:07:47.196Z,22.15
2023-07-22T11:10:58.196Z,22.55
2023-07-22T11:14:16.060Z,21.93
2023-07-22T11:17:20.780Z,21.65
2023-07-22T11:20:24.861Z,21.69
2023-07-22T11:23:29.161Z,21.13
2023-07-22T11:26:34.198Z,21.33
2023-07-22T11:29:38.330Z,21.41
2023-07-22T11:32:45.670Z,21.15
2023-07-22T11:35:49.162Z,21.02
2023-07-22T11:38:52.543Z,20.92
2023-07-22T11:41:57.483Z,20.77
2023-07-22T11:45:00.945Z,20.71
2023-07-22T11:48:11.140Z,20.77
2023-07-22T11:51:14.703Z,20.65
2023-07-22T11:54:18.570Z,20.28
2023-07-22T11:57:26.107Z,20.19
2023-07-22T12:00:29.529Z,20.34
2023-07-22T12:03:34.620Z,20.57
2023-07-22T12:06:38.083Z,20.55
2023-07-22T12:09:41.500Z,20.61
2023-07-22T12:12:48.703Z,20.61
2023-07-22T12:16:02.565Z,20.80
2023-07-22T12:19:06.895Z,20.87
2023-07-22T12:22:11.703Z,20.70
2023-07-22T12:28:20.948Z,20.65
2023-07-22T12:31:24.685Z,21.60
2023-07-22T12:34:29.588Z,21.37
2023-07-22T12:37:33.607Z,22.73
2023-07-22T12:40:37.021Z,22.76
2023-07-22T12:43:41.735Z,22.97
2023-07-22T12:46:45.268Z,22.39
2023-07-22T12:49:48.789Z,22.56
2023-07-22T12:52:52.172Z,23.24
2023-07-22T12:55:55.924Z,23.79
2023-07-22T12:59:00.813Z,23.56
2023-07-22T13:02:04.677Z,23.02
2023-07-22T13:05:08.912Z,24.26
2023-07-22T13:08:12.323Z,24.36
2023-07-22T13:11:15.873Z,22.68
2023-07-22T13:14:27.007Z,22.41
2023-07-22T13:17:30.520Z,22.46
2023-07-22T13:20:34.118Z,22.47
2023-07-22T13:23:37.458Z,22.64
2023-07-22T13:26:41.056Z,23.53
2023-07-22T13:29:48.379Z,22.69
2023-07-22T13:32:52.018Z,23.10
2023-07-22T13:35:55.796Z,22.87
2023-07-22T13:38:59.495Z,22.54
2023-07-22T13:42:06.561Z,23.61
2023-07-22T13:45:12.343Z,22.53
2023-07-22T13:48:15.800Z,22.93
2023-07-22T13:51:19.209Z,23.92
2023-07-22T13:54:25.424Z,24.18
2023-07-22T13:57:30.561Z,24.02
2023-07-22T14:00:36.264Z,23.96
2023-07-22T14:03:42.128Z,24.23
2023-07-22T14:06:45.813Z,23.99
2023-07-22T14:09:49.335Z,24.14
2023-07-22T14:12:53.033Z,23.63
2023-07-22T14:16:05.635Z,23.76
2023-07-22T14:19:16.483Z,24.26
2023-07-22T14:22:20.025Z,24.20
2023-07-22T14:28:09.263Z,23.59
2023-07-22T14:31:12.960Z,24.68
2023-07-22T14:34:16.278Z,24.76
2023-07-22T14:37:19.988Z,23.48
2023-07-22T14:40:23.775Z,23.34
2023-07-22T14:43:28.491Z,23.69
2023-07-22T14:46:32.115Z,24.06
2023-07-22T14:49:35.499Z,24.66
2023-07-22T14:52:38.935Z,23.96
2023-07-22T14:55:42.399Z,23.61
2023-07-22T14:58:50.369Z,23.30
2023-07-22T15:01:55.961Z,23.86
2023-07-22T15:04:59.367Z,23.96
2023-07-22T15:08:03.365Z,23.96
2023-07-22T15:11:07.193Z,23.78
2023-07-22T15:14:12.353Z,24.05
2023-07-22T15:17:18.106Z,23.94
2023-07-22T15:20:21.906Z,23.92
2023-07-22T15:23:25.614Z,23.79
2023-07-22T15:26:29.071Z,24.01
2023-07-22T15:29:36.488Z,23.44
2023-07-22T15:32:40.762Z,23.99
2023-07-22T15:35:44.422Z,23.66
2023-07-22T15:38:49.199Z,23.47
2023-07-22T15:41:52.622Z,23.86
2023-07-22T15:44:57.936Z,23.75
2023-07-22T15:48:01.719Z,23.23
2023-07-22T15:51:05.292Z,23.22
2023-07-22T15:54:08.751Z,23.18
2023-07-22T15:57:12.186Z,23.37
2023-07-22T16:00:17.351Z,23.67
2023-07-22T16:03:20.848Z,23.80
2023-07-22T16:06:32.676Z,23.92
2023-07-22T16:09:37.491Z,23.85
2023-07-22T16:12:41.447Z,23.60
2023-07-22T16:15:47.386Z,23.14
2023-07-22T16:18:50.771Z,23.30
2023-07-22T16:21:54.255Z,23.15
2023-07-22T16:24:57.702Z,22.71
2023-07-22T16:28:01.070Z,22.35
2023-07-22T16:31:05.868Z,22.04
2023-07-22T16:34:10.224Z,22.37
2023-07-22T16:37:15.610Z,22.56
2023-07-22T16:40:19.304Z,22.64
2023-07-22T16:43:24.060Z,22.77
2023-07-22T16:46:29.675Z,22.59
2023-07-22T16:49:33.888Z,21.94
2023-07-22T16:52:40.869Z,22.05
2023-07-22T16:55:44.263Z,22.11
2023-07-22T16:58:51.048Z,22.06
2023-07-22T17:01:58.128Z,22.10
2023-07-22T17:05:10.450Z,21.77
2023-07-22T17:08:14.070Z,21.94
2023-07-22T17:11:17.792Z,22.02
2023-07-22T17:14:21.360Z,21.84
2023-07-22T17:17:26.407Z,21.72
2023-07-22T17:20:29.906Z,21.93
2023-07-22T17:23:33.553Z,21.83
2023-07-22T17:26:37.444Z,21.88
2023-07-22T17:29:41.609Z,21.71
2023-07-22T17:32:50.180Z,21.59
2023-07-22T17:35:53.782Z,21.58
2023-07-22T17:38:57.267Z,21.41
2023-07-22T17:43:32.955Z,21.52
2023-07-22T17:46:36.780Z,21.47
2023-07-22T17:49:40.239Z,21.29
2023-07-22T17:52:43.649Z,21.38
2023-07-22T17:55:47.121Z,21.29
2023-07-22T17:58:52.014Z,21.27
2023-07-22T18:01:55.846Z,21.09
2023-07-22T18:04:59.452Z,21.08
2023-07-22T18:08:02.805Z,21.05
2023-07-22T18:11:06.287Z,21.04
2023-07-22T18:14:11.069Z,20.91
2023-07-22T18:17:14.441Z,20.73
2023-07-22T18:20:17.931Z,20.59
2023-07-22T18:23:21.361Z,20.13
2023-07-22T18:26:25.004Z,19.88
2023-07-22T18:29:31.583Z,19.72
2023-07-22T18:32:35.111Z,19.53
2023-07-22T18:35:38.730Z,19.45
2023-07-22T18:38:42.110Z,19.30
2023-07-22T18:41:46.055Z,19.25
2023-07-22T18:44:50.883Z,18.95
2023-07-22T18:47:54.614Z,18.98
2023-07-22T18:50:58.098Z,18.83
2023-07-22T18:54:01.934Z,18.73
2023-07-22T18:57:05.882Z,18.54
2023-07-22T19:00:13.770Z,18.21
2023-07-22T19:03:17.176Z,18.38
2023-07-22T19:06:20.700Z,17.98
2023-07-22T19:09:24.267Z,18.10
2023-07-22T19:12:27.706Z,17.36
2023-07-22T19:15:35.622Z,17.35
2023-07-22T19:18:39.493Z,16.98
2023-07-22T19:21:43.066Z,16.93
2023-07-22T19:24:48.434Z,17.06
2023-07-22T19:27:56.105Z,17.21
2023-07-22T19:31:01.414Z,17.05
2023-07-22T19:34:05.710Z,16.78
2023-07-22T19:37:09.237Z,16.79
2023-07-22T19:40:13.633Z,16.79
2023-07-22T19:43:17.077Z,16.41
2023-07-22T19:46:21.886Z,16.36
2023-07-22T19:49:27.378Z,16.47
2023-07-22T19:52:30.855Z,16.37
2023-07-22T19:55:34.261Z,16.37
2023-07-22T19:58:38.138Z,16.35
2023-07-22T20:01:43.050Z,16.28
2023-07-22T20:04:47.286Z,16.28
2023-07-22T20:07:51.617Z,16.09
2023-07-22T20:10:55.888Z,15.95
2023-07-22T20:14:05.495Z,15.40
2023-07-22T20:17:10.510Z,14.99
2023-07-22T20:20:13.979Z,15.09
2023-07-22T20:23:17.559Z,15.36
2023-07-22T20:26:21.147Z,15.32
2023-07-22T20:29:24.753Z,15.28
2023-07-22T20:32:30.205Z,15.19
2023-07-22T20:35:34.017Z,15.17
2023-07-22T20:38:37.469Z,14.54
2023-07-22T20:41:40.899Z,14.55
2023-07-22T20:44:44.478Z,14.69
2023-07-22T20:47:49.336Z,14.86
2023-07-22T20:50:56.221Z,14.79
2023-07-22T20:53:59.708Z,14.72
2023-07-22T20:57:03.335Z,14.60
2023-07-22T21:00:08.855Z,14.46
2023-07-22T21:03:13.875Z,14.51
2023-07-22T21:06:17.264Z,14.59
2023-07-22T21:09:20.859Z,14.72
2023-07-22T21:12:24.540Z,14.67
2023-07-22T21:15:27.987Z,14.35
2023-07-22T21:18:33.477Z,14.08
2023-07-22T21:21:37.368Z,13.98
2023-07-22T21:24:40.972Z,14.02
2023-07-22T21:27:48.485Z,14.00
2023-07-22T21:30:52.410Z,13.76
2023-07-22T21:34:13.501Z,13.79
2023-07-22T21:37:18.868Z,13.85
2023-07-22T21:40:22.546Z,13.92
2023-07-22T21:43:26.028Z,13.64
2023-07-22T21:46:29.486Z,13.65
2023-07-22T21:49:34.344Z,13.56
2023-07-22T21:52:38.106Z,13.39
2023-07-22T21:55:41.540Z,13.31
2023-07-22T21:58:48.198Z,13.35
2023-07-22T22:01:51.798Z,13.33
2023-07-22T22:04:56.592Z,13.56
2023-07-22T22:08:00.295Z,13.55
2023-07-22T22:11:07.015Z,13.63
2023-07-22T22:14:15.447Z,13.48
2023-07-22T22:17:22.208Z,13.55
2023-07-22T22:20:27.074Z,13.42
2023-07-22T22:23:30.628Z,13.40
2023-07-22T22:26:34.331Z,13.31
2023-07-22T22:29:37.813Z,13.30
2023-07-22T22:32:41.588Z,13.38
2023-07-22T22:35:46.541Z,13.31
2023-07-22T22:38:50.172Z,13.40
2023-07-22T22:41:53.653Z,13.21
2023-07-22T22:44:57.005Z,13.22
2023-07-22T22:48:00.507Z,13.17
2023-07-22T22:51:05.369Z,13.25
2023-07-22T22:54:08.917Z,13.27
2023-07-22T22:57:12.276Z,13.20
2023-07-22T23:00:17.303Z,13.10
2023-07-22T23:03:20.743Z,13.20
2023-07-22T23:06:25.873Z,13.39
2023-07-22T23:09:29.402Z,13.36
2023-07-22T23:12:33.071Z,13.56
2023-07-22T23:15:36.785Z,13.66
2023-07-22T23:18:41.939Z,13.65
2023-07-22T23:21:46.949Z,13.18
2023-07-22T23:24:50.353Z,13.19
2023-07-22T23:27:53.697Z,13.21
2023-07-22T23:30:57.536Z,13.18
2023-07-22T23:34:01.034Z,13.19
2023-07-22T23:37:06.291Z,13.08
2023-07-22T23:40:10.465Z,13.07
2023-07-22T23:43:13.870Z,12.89
2023-07-22T23:46:17.360Z,12.95
2023-07-22T23:49:20.749Z,12.97
2023-07-22T23:52:25.720Z,12.88
2023-07-22T23:55:30.442Z,13.01
2023-07-22T23:58:33.861Z,12.85
